sensor_id;sensor_type;location;lat;lon;timestamp;temperature;humidity
9116;DHT22;4593;53.652;10.168;2023-04-03T00:00:59;-0.50;95.40
9116;DHT22;4593;53.652;10.168;2023-04-03T00:03:24;-0.50;96.00
9116;DHT22;4593;53.652;10.168;2023-04-03T00:05:50;-0.60;96.10
9116;DHT22;4593;53.652;10.168;2023-04-03T00:08:16;-0.60;96.40
9116;DHT22;4593;53.652;10.168;2023-04-03T00:10:42;-0.70;96.40
9116;DHT22;4593;53.652;10.168;2023-04-03T00:13:08;-0.70;96.50
9116;DHT22;4593;53.652;10.168;2023-04-03T00:15:34;-0.60;96.50
9116;DHT22;4593;53.652;10.168;2023-04-03T00:18:00;-0.70;96.60
9116;DHT22;4593;53.652;10.168;2023-04-03T00:20:27;-0.70;96.70
9116;DHT22;4593;53.652;10.168;2023-04-03T00:22:53;-0.80;96.90
9116;DHT22;4593;53.652;10.168;2023-04-03T00:25:18;-0.70;97.10
9116;DHT22;4593;53.652;10.168;2023-04-03T00:27:44;-0.80;97.20
9116;DHT22;4593;53.652;10.168;2023-04-03T00:30:14;-0.80;97.30
9116;DHT22;4593;53.652;10.168;2023-04-03T00:32:40;-0.80;97.40
9116;DHT22;4593;53.652;10.168;2023-04-03T00:35:07;-0.80;97.40
9116;DHT22;4593;53.652;10.168;2023-04-03T00:37:33;-0.80;97.60
9116;DHT22;4593;53.652;10.168;2023-04-03T00:39:59;-0.90;97.50
9116;DHT22;4593;53.652;10.168;2023-04-03T00:42:25;-0.80;97.50
9116;DHT22;4593;53.652;10.168;2023-04-03T00:47:23;-0.80;97.30
9116;DHT22;4593;53.652;10.168;2023-04-03T00:49:50;-0.80;96.90
9116;DHT22;4593;53.652;10.168;2023-04-03T00:52:21;-0.90;97.10
9116;DHT22;4593;53.652;10.168;2023-04-03T00:54:49;-0.90;97.20
9116;DHT22;4593;53.652;10.168;2023-04-03T00:57:16;-0.90;97.40
9116;DHT22;4593;53.652;10.168;2023-04-03T00:59:49;-0.90;97.20
9116;DHT22;4593;53.652;10.168;2023-04-03T01:02:16;-0.90;97.50
9116;DHT22;4593;53.652;10.168;2023-04-03T01:04:43;-0.90;97.60
9116;DHT22;4593;53.652;10.168;2023-04-03T01:07:17;-0.90;97.70
9116;DHT22;4593;53.652;10.168;2023-04-03T01:09:44;-0.90;97.70
9116;DHT22;4593;53.652;10.168;2023-04-03T01:12:19;-0.90;97.80
9116;DHT22;4593;53.652;10.168;2023-04-03T01:14:47;-1.00;97.90
9116;DHT22;4593;53.652;10.168;2023-04-03T01:17:34;-1.00;98.00
9116;DHT22;4593;53.652;10.168;2023-04-03T01:20:36;-1.00;97.80
9116;DHT22;4593;53.652;10.168;2023-04-03T01:23:17;-1.00;97.60
9116;DHT22;4593;53.652;10.168;2023-04-03T01:25:51;-1.00;97.50
9116;DHT22;4593;53.652;10.168;2023-04-03T01:28:19;-1.10;97.50
9116;DHT22;4593;53.652;10.168;2023-04-03T01:30:58;-1.10;97.80
9116;DHT22;4593;53.652;10.168;2023-04-03T01:33:26;-1.10;98.10
9116;DHT22;4593;53.652;10.168;2023-04-03T01:35:51;-1.20;98.40
9116;DHT22;4593;53.652;10.168;2023-04-03T01:38:17;-1.20;98.30
9116;DHT22;4593;53.652;10.168;2023-04-03T01:40:43;-1.20;98.50
9116;DHT22;4593;53.652;10.168;2023-04-03T01:43:09;-1.20;98.60
9116;DHT22;4593;53.652;10.168;2023-04-03T01:45:34;-1.30;98.50
9116;DHT22;4593;53.652;10.168;2023-04-03T01:48:00;-1.30;98.60
9116;DHT22;4593;53.652;10.168;2023-04-03T01:50:26;-1.30;99.10
9116;DHT22;4593;53.652;10.168;2023-04-03T01:52:51;-1.30;99.20
9116;DHT22;4593;53.652;10.168;2023-04-03T01:55:17;-1.30;99.30
9116;DHT22;4593;53.652;10.168;2023-04-03T01:57:42;-1.30;99.50
9116;DHT22;4593;53.652;10.168;2023-04-03T02:00:09;-1.30;99.00
9116;DHT22;4593;53.652;10.168;2023-04-03T02:02:35;-1.40;99.20
9116;DHT22;4593;53.652;10.168;2023-04-03T02:05:00;-1.40;99.30
9116;DHT22;4593;53.652;10.168;2023-04-03T02:07:26;-1.40;99.50
9116;DHT22;4593;53.652;10.168;2023-04-03T02:09:52;-1.40;99.30
9116;DHT22;4593;53.652;10.168;2023-04-03T02:12:18;-1.40;99.20
9116;DHT22;4593;53.652;10.168;2023-04-03T02:14:44;-1.40;99.20
9116;DHT22;4593;53.652;10.168;2023-04-03T02:17:09;-1.40;99.30
9116;DHT22;4593;53.652;10.168;2023-04-03T02:19:35;-1.40;99.00
9116;DHT22;4593;53.652;10.168;2023-04-03T02:22:04;-1.40;99.10
9116;DHT22;4593;53.652;10.168;2023-04-03T02:24:31;-1.40;99.30
9116;DHT22;4593;53.652;10.168;2023-04-03T02:26:57;-1.50;99.40
9116;DHT22;4593;53.652;10.168;2023-04-03T02:29:23;-1.50;99.60
9116;DHT22;4593;53.652;10.168;2023-04-03T02:31:49;-1.50;99.70
9116;DHT22;4593;53.652;10.168;2023-04-03T02:34:14;-1.50;99.80
9116;DHT22;4593;53.652;10.168;2023-04-03T02:36:40;-1.50;99.60
9116;DHT22;4593;53.652;10.168;2023-04-03T02:39:06;-1.50;99.50
9116;DHT22;4593;53.652;10.168;2023-04-03T02:41:31;-1.50;99.60
9116;DHT22;4593;53.652;10.168;2023-04-03T02:44:04;-1.60;99.90
9116;DHT22;4593;53.652;10.168;2023-04-03T02:46:30;-1.60;99.90
9116;DHT22;4593;53.652;10.168;2023-04-03T02:48:56;-1.60;100.00
9116;DHT22;4593;53.652;10.168;2023-04-03T02:51:22;-1.60;99.90
9116;DHT22;4593;53.652;10.168;2023-04-03T02:53:49;-1.60;100.00
9116;DHT22;4593;53.652;10.168;2023-04-03T02:56:15;-1.60;100.00
9116;DHT22;4593;53.652;10.168;2023-04-03T02:58:41;-1.60;99.80
9116;DHT22;4593;53.652;10.168;2023-04-03T03:01:06;-1.70;99.80
9116;DHT22;4593;53.652;10.168;2023-04-03T03:03:32;-1.70;100.00
9116;DHT22;4593;53.652;10.168;2023-04-03T03:06:05;-1.70;100.00
9116;DHT22;4593;53.652;10.168;2023-04-03T03:08:32;-1.70;100.00
9116;DHT22;4593;53.652;10.168;2023-04-03T03:10:58;-1.70;100.00
9116;DHT22;4593;53.652;10.168;2023-04-03T03:13:24;-1.70;100.00
9116;DHT22;4593;53.652;10.168;2023-04-03T03:15:50;-1.70;100.00
9116;DHT22;4593;53.652;10.168;2023-04-03T03:18:15;-1.70;100.00
9116;DHT22;4593;53.652;10.168;2023-04-03T03:20:41;-1.80;100.00
9116;DHT22;4593;53.652;10.168;2023-04-03T03:23:07;-1.80;100.00
9116;DHT22;4593;53.652;10.168;2023-04-03T03:25:32;-1.80;100.00
9116;DHT22;4593;53.652;10.168;2023-04-03T03:27:58;-1.80;100.00
9116;DHT22;4593;53.652;10.168;2023-04-03T03:30:24;-1.80;100.00
9116;DHT22;4593;53.652;10.168;2023-04-03T03:32:49;-1.80;100.00
9116;DHT22;4593;53.652;10.168;2023-04-03T03:35:15;-1.90;100.00
9116;DHT22;4593;53.652;10.168;2023-04-03T03:37:41;-1.90;100.00
9116;DHT22;4593;53.652;10.168;2023-04-03T03:40:07;-1.90;100.00
9116;DHT22;4593;53.652;10.168;2023-04-03T03:42:33;-1.90;100.00
9116;DHT22;4593;53.652;10.168;2023-04-03T03:44:58;-1.90;100.00
9116;DHT22;4593;53.652;10.168;2023-04-03T03:47:24;-1.90;100.00
9116;DHT22;4593;53.652;10.168;2023-04-03T03:49:50;-1.90;100.00
9116;DHT22;4593;53.652;10.168;2023-04-03T03:52:16;-1.90;100.00
9116;DHT22;4593;53.652;10.168;2023-04-03T03:54:42;-1.90;100.00
9116;DHT22;4593;53.652;10.168;2023-04-03T03:57:07;-1.90;100.00
9116;DHT22;4593;53.652;10.168;2023-04-03T03:59:33;-2.00;100.00
9116;DHT22;4593;53.652;10.168;2023-04-03T04:01:59;-2.00;100.00
9116;DHT22;4593;53.652;10.168;2023-04-03T04:04:24;-2.00;100.00
9116;DHT22;4593;53.652;10.168;2023-04-03T04:06:50;-2.00;100.00
9116;DHT22;4593;53.652;10.168;2023-04-03T04:09:17;-2.00;100.00
9116;DHT22;4593;53.652;10.168;2023-04-03T04:11:43;-2.00;100.00
9116;DHT22;4593;53.652;10.168;2023-04-03T04:14:10;-2.10;100.00
9116;DHT22;4593;53.652;10.168;2023-04-03T04:16:37;-2.10;100.00
9116;DHT22;4593;53.652;10.168;2023-04-03T04:19:03;-2.10;100.00
9116;DHT22;4593;53.652;10.168;2023-04-03T04:21:29;-2.10;100.00
9116;DHT22;4593;53.652;10.168;2023-04-03T04:23:54;-2.10;100.00
9116;DHT22;4593;53.652;10.168;2023-04-03T04:26:20;-2.10;100.00
9116;DHT22;4593;53.652;10.168;2023-04-03T04:28:46;-2.10;100.00
9116;DHT22;4593;53.652;10.168;2023-04-03T04:31:11;-2.10;100.00
9116;DHT22;4593;53.652;10.168;2023-04-03T04:33:37;-2.10;100.00
9116;DHT22;4593;53.652;10.168;2023-04-03T04:36:03;-2.10;100.00
9116;DHT22;4593;53.652;10.168;2023-04-03T04:38:28;-2.10;100.00
9116;DHT22;4593;53.652;10.168;2023-04-03T04:40:54;-2.10;100.00
9116;DHT22;4593;53.652;10.168;2023-04-03T04:43:19;-2.10;100.00
9116;DHT22;4593;53.652;10.168;2023-04-03T04:45:45;-2.10;100.00
9116;DHT22;4593;53.652;10.168;2023-04-03T04:48:11;-2.10;100.00
9116;DHT22;4593;53.652;10.168;2023-04-03T04:50:37;-2.10;100.00
9116;DHT22;4593;53.652;10.168;2023-04-03T04:53:02;-2.10;100.00
9116;DHT22;4593;53.652;10.168;2023-04-03T04:55:29;-2.10;100.00
9116;DHT22;4593;53.652;10.168;2023-04-03T04:57:55;-2.20;100.00
9116;DHT22;4593;53.652;10.168;2023-04-03T05:00:21;-2.10;100.00
9116;DHT22;4593;53.652;10.168;2023-04-03T05:02:46;-2.10;100.00
9116;DHT22;4593;53.652;10.168;2023-04-03T05:05:12;-2.10;100.00
9116;DHT22;4593;53.652;10.168;2023-04-03T05:07:38;-2.10;100.00
9116;DHT22;4593;53.652;10.168;2023-04-03T05:10:04;-2.10;100.00
9116;DHT22;4593;53.652;10.168;2023-04-03T05:12:31;-2.10;100.00
9116;DHT22;4593;53.652;10.168;2023-04-03T05:14:57;-2.10;100.00
9116;DHT22;4593;53.652;10.168;2023-04-03T05:17:22;-2.00;100.00
9116;DHT22;4593;53.652;10.168;2023-04-03T05:19:48;-2.00;100.00
9116;DHT22;4593;53.652;10.168;2023-04-03T05:22:14;-2.00;100.00
9116;DHT22;4593;53.652;10.168;2023-04-03T05:24:40;-2.00;100.00
9116;DHT22;4593;53.652;10.168;2023-04-03T05:27:06;-1.90;100.00
9116;DHT22;4593;53.652;10.168;2023-04-03T05:29:32;-1.90;100.00
9116;DHT22;4593;53.652;10.168;2023-04-03T05:31:57;-1.80;100.00
9116;DHT22;4593;53.652;10.168;2023-04-03T05:34:23;-1.80;100.00
9116;DHT22;4593;53.652;10.168;2023-04-03T05:36:48;-1.70;100.00
9116;DHT22;4593;53.652;10.168;2023-04-03T05:39:14;-1.70;100.00
9116;DHT22;4593;53.652;10.168;2023-04-03T05:41:40;-1.70;100.00
9116;DHT22;4593;53.652;10.168;2023-04-03T05:44:05;-1.60;100.00
9116;DHT22;4593;53.652;10.168;2023-04-03T05:46:31;-1.50;100.00
9116;DHT22;4593;53.652;10.168;2023-04-03T05:48:57;-1.40;100.00
9116;DHT22;4593;53.652;10.168;2023-04-03T05:51:25;-1.40;100.00
9116;DHT22;4593;53.652;10.168;2023-04-03T05:53:59;-1.30;100.00
9116;DHT22;4593;53.652;10.168;2023-04-03T05:56:26;-1.20;100.00
9116;DHT22;4593;53.652;10.168;2023-04-03T05:58:52;-1.20;100.00
9116;DHT22;4593;53.652;10.168;2023-04-03T06:01:17;-1.10;100.00
9116;DHT22;4593;53.652;10.168;2023-04-03T06:03:43;-1.00;100.00
9116;DHT22;4593;53.652;10.168;2023-04-03T06:06:13;-1.00;100.00
9116;DHT22;4593;53.652;10.168;2023-04-03T06:08:39;-0.90;100.00
9116;DHT22;4593;53.652;10.168;2023-04-03T06:11:05;-0.80;100.00
9116;DHT22;4593;53.652;10.168;2023-04-03T06:13:31;-0.70;100.00
9116;DHT22;4593;53.652;10.168;2023-04-03T06:15:57;-0.50;99.80
9116;DHT22;4593;53.652;10.168;2023-04-03T06:18:23;-0.40;100.00
9116;DHT22;4593;53.652;10.168;2023-04-03T06:20:48;-0.30;100.00
9116;DHT22;4593;53.652;10.168;2023-04-03T06:23:14;-0.20;100.00
9116;DHT22;4593;53.652;10.168;2023-04-03T06:25:39;0.00;99.40
9116;DHT22;4593;53.652;10.168;2023-04-03T06:28:06;0.00;99.60
9116;DHT22;4593;53.652;10.168;2023-04-03T06:30:34;0.10;99.40
9116;DHT22;4593;53.652;10.168;2023-04-03T06:33:00;0.20;99.10
9116;DHT22;4593;53.652;10.168;2023-04-03T06:35:26;0.30;98.70
9116;DHT22;4593;53.652;10.168;2023-04-03T06:37:53;0.50;98.20
9116;DHT22;4593;53.652;10.168;2023-04-03T06:40:22;0.50;97.70
9116;DHT22;4593;53.652;10.168;2023-04-03T06:42:48;0.70;97.60
9116;DHT22;4593;53.652;10.168;2023-04-03T06:45:14;0.80;97.50
9116;DHT22;4593;53.652;10.168;2023-04-03T06:47:41;0.90;96.70
9116;DHT22;4593;53.652;10.168;2023-04-03T06:50:07;1.00;95.80
9116;DHT22;4593;53.652;10.168;2023-04-03T06:52:34;1.10;94.60
9116;DHT22;4593;53.652;10.168;2023-04-03T06:55:00;1.20;94.20
9116;DHT22;4593;53.652;10.168;2023-04-03T06:57:26;1.30;93.30
9116;DHT22;4593;53.652;10.168;2023-04-03T06:59:51;1.50;93.00
9116;DHT22;4593;53.652;10.168;2023-04-03T07:02:17;1.80;92.20
9116;DHT22;4593;53.652;10.168;2023-04-03T07:04:43;1.90;90.80
9116;DHT22;4593;53.652;10.168;2023-04-03T07:07:08;2.10;89.90
9116;DHT22;4593;53.652;10.168;2023-04-03T07:09:34;2.20;89.00
9116;DHT22;4593;53.652;10.168;2023-04-03T07:12:00;2.40;88.40
9116;DHT22;4593;53.652;10.168;2023-04-03T07:14:26;2.50;88.70
9116;DHT22;4593;53.652;10.168;2023-04-03T07:16:52;2.40;87.30
9116;DHT22;4593;53.652;10.168;2023-04-03T07:19:17;2.60;86.60
9116;DHT22;4593;53.652;10.168;2023-04-03T07:21:44;2.40;86.20
9116;DHT22;4593;53.652;10.168;2023-04-03T07:24:10;2.40;86.70
9116;DHT22;4593;53.652;10.168;2023-04-03T07:26:37;2.60;86.60
9116;DHT22;4593;53.652;10.168;2023-04-03T07:29:03;2.60;86.20
9116;DHT22;4593;53.652;10.168;2023-04-03T07:31:28;2.70;86.30
9116;DHT22;4593;53.652;10.168;2023-04-03T07:33:54;2.80;85.70
9116;DHT22;4593;53.652;10.168;2023-04-03T07:36:22;2.90;84.60
9116;DHT22;4593;53.652;10.168;2023-04-03T07:38:48;3.00;83.60
9116;DHT22;4593;53.652;10.168;2023-04-03T07:41:15;3.20;83.30
9116;DHT22;4593;53.652;10.168;2023-04-03T07:43:43;3.30;82.00
9116;DHT22;4593;53.652;10.168;2023-04-03T07:46:08;3.40;80.40
9116;DHT22;4593;53.652;10.168;2023-04-03T07:48:35;3.40;79.40
9116;DHT22;4593;53.652;10.168;2023-04-03T07:51:02;3.60;79.40
9116;DHT22;4593;53.652;10.168;2023-04-03T07:53:29;3.50;77.00
9116;DHT22;4593;53.652;10.168;2023-04-03T07:55:57;3.70;76.40
9116;DHT22;4593;53.652;10.168;2023-04-03T07:58:23;3.80;74.10
9116;DHT22;4593;53.652;10.168;2023-04-03T08:00:49;3.80;73.50
9116;DHT22;4593;53.652;10.168;2023-04-03T08:03:15;3.90;72.60
9116;DHT22;4593;53.652;10.168;2023-04-03T08:05:45;4.10;72.30
9116;DHT22;4593;53.652;10.168;2023-04-03T08:08:13;4.10;72.00
9116;DHT22;4593;53.652;10.168;2023-04-03T08:10:40;4.20;69.80
9116;DHT22;4593;53.652;10.168;2023-04-03T08:13:06;4.20;70.10
9116;DHT22;4593;53.652;10.168;2023-04-03T08:15:33;4.30;70.30
9116;DHT22;4593;53.652;10.168;2023-04-03T08:17:59;4.60;70.00
9116;DHT22;4593;53.652;10.168;2023-04-03T08:20:26;5.00;69.60
9116;DHT22;4593;53.652;10.168;2023-04-03T08:22:52;4.90;67.20
9116;DHT22;4593;53.652;10.168;2023-04-03T08:25:17;5.00;65.90
9116;DHT22;4593;53.652;10.168;2023-04-03T08:27:43;5.00;66.20
9116;DHT22;4593;53.652;10.168;2023-04-03T08:30:10;5.10;66.20
9116;DHT22;4593;53.652;10.168;2023-04-03T08:32:36;5.30;65.40
9116;DHT22;4593;53.652;10.168;2023-04-03T08:35:03;5.40;63.20
9116;DHT22;4593;53.652;10.168;2023-04-03T08:37:29;5.50;62.60
9116;DHT22;4593;53.652;10.168;2023-04-03T08:39:54;5.40;62.00
9116;DHT22;4593;53.652;10.168;2023-04-03T08:50:31;5.80;58.00
9116;DHT22;4593;53.652;10.168;2023-04-03T08:52:59;5.70;56.00
9116;DHT22;4593;53.652;10.168;2023-04-03T08:55:29;5.90;56.50
9116;DHT22;4593;53.652;10.168;2023-04-03T08:58:14;6.00;55.90
9116;DHT22;4593;53.652;10.168;2023-04-03T09:03:15;6.60;56.50
9116;DHT22;4593;53.652;10.168;2023-04-03T09:05:47;6.80;56.80
9116;DHT22;4593;53.652;10.168;2023-04-03T09:20:02;7.20;49.50
9116;DHT22;4593;53.652;10.168;2023-04-03T09:22:26;6.80;48.60
9116;DHT22;4593;53.652;10.168;2023-04-03T09:24:59;6.90;49.00
9116;DHT22;4593;53.652;10.168;2023-04-03T09:27:26;6.90;48.40
9116;DHT22;4593;53.652;10.168;2023-04-03T09:29:54;7.00;48.00
9116;DHT22;4593;53.652;10.168;2023-04-03T09:32:36;6.70;46.80
9116;DHT22;4593;53.652;10.168;2023-04-03T09:37:45;6.50;46.90
9116;DHT22;4593;53.652;10.168;2023-04-03T09:42:58;6.50;48.70
9116;DHT22;4593;53.652;10.168;2023-04-03T09:45:34;6.90;51.50
9116;DHT22;4593;53.652;10.168;2023-04-03T09:53:36;6.50;43.80
9116;DHT22;4593;53.652;10.168;2023-04-03T09:58:40;6.00;44.10
9116;DHT22;4593;53.652;10.168;2023-04-03T10:06:40;6.10;46.10
9116;DHT22;4593;53.652;10.168;2023-04-03T10:12:06;6.20;46.70
9116;DHT22;4593;53.652;10.168;2023-04-03T10:14:34;6.70;47.30
9116;DHT22;4593;53.652;10.168;2023-04-03T10:20:00;6.60;47.90
9116;DHT22;4593;53.652;10.168;2023-04-03T10:28:10;7.00;49.40
9116;DHT22;4593;53.652;10.168;2023-04-03T10:30:58;7.30;47.70
9116;DHT22;4593;53.652;10.168;2023-04-03T10:33:47;7.20;47.50
9116;DHT22;4593;53.652;10.168;2023-04-03T10:36:33;7.70;47.30
9116;DHT22;4593;53.652;10.168;2023-04-03T10:58:36;7.80;48.00
9116;DHT22;4593;53.652;10.168;2023-04-03T11:01:15;7.80;47.70
9116;DHT22;4593;53.652;10.168;2023-04-03T11:04:11;7.10;49.30
9116;DHT22;4593;53.652;10.168;2023-04-03T11:06:43;7.10;50.70
9116;DHT22;4593;53.652;10.168;2023-04-03T11:09:33;7.80;50.60
9116;DHT22;4593;53.652;10.168;2023-04-03T11:12:41;8.30;49.30
9116;DHT22;4593;53.652;10.168;2023-04-03T11:15:03;8.20;47.10
9116;DHT22;4593;53.652;10.168;2023-04-03T11:17:40;8.20;48.30
9116;DHT22;4593;53.652;10.168;2023-04-03T11:20:26;7.50;48.50
9116;DHT22;4593;53.652;10.168;2023-04-03T11:23:05;6.80;49.50
9116;DHT22;4593;53.652;10.168;2023-04-03T11:25:36;6.40;49.20
9116;DHT22;4593;53.652;10.168;2023-04-03T11:28:06;6.30;48.90
9116;DHT22;4593;53.652;10.168;2023-04-03T11:39:28;6.90;45.80
9116;DHT22;4593;53.652;10.168;2023-04-03T11:41:54;7.00;47.10
9116;DHT22;4593;53.652;10.168;2023-04-03T11:46:57;7.00;45.60
9116;DHT22;4593;53.652;10.168;2023-04-03T12:08:27;8.60;43.90
9116;DHT22;4593;53.652;10.168;2023-04-03T12:16:24;8.00;43.90
9116;DHT22;4593;53.652;10.168;2023-04-03T12:24:24;7.60;44.60
9116;DHT22;4593;53.652;10.168;2023-04-03T12:29:27;7.80;43.60
9116;DHT22;4593;53.652;10.168;2023-04-03T12:40:10;8.60;41.80
9116;DHT22;4593;53.652;10.168;2023-04-03T12:45:25;7.60;44.20
9116;DHT22;4593;53.652;10.168;2023-04-03T12:47:53;7.40;45.80
9116;DHT22;4593;53.652;10.168;2023-04-03T12:50:31;7.70;45.70
9116;DHT22;4593;53.652;10.168;2023-04-03T12:53:05;7.40;45.10
9116;DHT22;4593;53.652;10.168;2023-04-03T12:55:32;7.20;45.00
9116;DHT22;4593;53.652;10.168;2023-04-03T13:01:21;7.00;45.50
9116;DHT22;4593;53.652;10.168;2023-04-03T13:03:47;7.20;45.40
9116;DHT22;4593;53.652;10.168;2023-04-03T13:06:32;7.30;45.90
9116;DHT22;4593;53.652;10.168;2023-04-03T13:09:01;7.30;46.30
9116;DHT22;4593;53.652;10.168;2023-04-03T13:11:32;7.20;47.60
9116;DHT22;4593;53.652;10.168;2023-04-03T13:14:12;7.40;47.30
9116;DHT22;4593;53.652;10.168;2023-04-03T13:16:40;7.40;46.40
9116;DHT22;4593;53.652;10.168;2023-04-03T13:19:16;7.50;44.50
9116;DHT22;4593;53.652;10.168;2023-04-03T13:21:43;7.30;44.00
9116;DHT22;4593;53.652;10.168;2023-04-03T13:24:10;7.30;44.70
9116;DHT22;4593;53.652;10.168;2023-04-03T13:26:36;7.20;44.50
9116;DHT22;4593;53.652;10.168;2023-04-03T13:29:06;7.20;43.80
9116;DHT22;4593;53.652;10.168;2023-04-03T13:31:37;7.10;44.70
9116;DHT22;4593;53.652;10.168;2023-04-03T13:39:28;7.20;44.10
9116;DHT22;4593;53.652;10.168;2023-04-03T13:41:54;7.30;44.60
9116;DHT22;4593;53.652;10.168;2023-04-03T13:46:47;7.30;45.00
9116;DHT22;4593;53.652;10.168;2023-04-03T13:49:36;7.10;44.20
9116;DHT22;4593;53.652;10.168;2023-04-03T13:52:26;7.10;46.00
9116;DHT22;4593;53.652;10.168;2023-04-03T13:54:58;7.20;46.20
9116;DHT22;4593;53.652;10.168;2023-04-03T13:57:24;7.20;43.40
9116;DHT22;4593;53.652;10.168;2023-04-03T13:59:51;7.20;43.50
9116;DHT22;4593;53.652;10.168;2023-04-03T14:02:33;7.10;43.20
9116;DHT22;4593;53.652;10.168;2023-04-03T14:05:01;7.00;45.60
9116;DHT22;4593;53.652;10.168;2023-04-03T14:07:29;7.00;46.00
9116;DHT22;4593;53.652;10.168;2023-04-03T14:09:56;6.90;45.80
9116;DHT22;4593;53.652;10.168;2023-04-03T14:14:52;7.30;46.40
9116;DHT22;4593;53.652;10.168;2023-04-03T14:17:23;7.30;45.20
9116;DHT22;4593;53.652;10.168;2023-04-03T14:19:51;7.20;44.80
9116;DHT22;4593;53.652;10.168;2023-04-03T14:24:45;7.30;45.40
9116;DHT22;4593;53.652;10.168;2023-04-03T14:29:42;7.40;46.30
9116;DHT22;4593;53.652;10.168;2023-04-03T14:32:12;7.70;46.40
9116;DHT22;4593;53.652;10.168;2023-04-03T14:34:38;7.80;46.40
9116;DHT22;4593;53.652;10.168;2023-04-03T14:37:08;7.60;46.50
9116;DHT22;4593;53.652;10.168;2023-04-03T14:39:34;7.50;47.60
9116;DHT22;4593;53.652;10.168;2023-04-03T14:42:00;7.60;47.00
9116;DHT22;4593;53.652;10.168;2023-04-03T14:44:26;7.60;46.70
9116;DHT22;4593;53.652;10.168;2023-04-03T14:46:51;8.00;46.50
9116;DHT22;4593;53.652;10.168;2023-04-03T14:49:24;8.20;46.50
9116;DHT22;4593;53.652;10.168;2023-04-03T14:51:50;8.40;46.10
9116;DHT22;4593;53.652;10.168;2023-04-03T14:54:18;8.20;46.60
9116;DHT22;4593;53.652;10.168;2023-04-03T14:56:47;8.20;46.90
9116;DHT22;4593;53.652;10.168;2023-04-03T14:59:14;7.70;48.10
9116;DHT22;4593;53.652;10.168;2023-04-03T15:01:40;7.40;48.90
9116;DHT22;4593;53.652;10.168;2023-04-03T15:04:17;6.90;49.80
9116;DHT22;4593;53.652;10.168;2023-04-03T15:06:44;6.90;50.60
9116;DHT22;4593;53.652;10.168;2023-04-03T15:09:28;7.10;49.60
9116;DHT22;4593;53.652;10.168;2023-04-03T15:11:55;7.30;47.80
9116;DHT22;4593;53.652;10.168;2023-04-03T15:14:21;7.50;47.80
9116;DHT22;4593;53.652;10.168;2023-04-03T15:16:46;7.50;47.00
9116;DHT22;4593;53.652;10.168;2023-04-03T15:19:13;7.80;47.60
9116;DHT22;4593;53.652;10.168;2023-04-03T15:21:39;7.80;47.10
9116;DHT22;4593;53.652;10.168;2023-04-03T15:24:05;7.80;47.50
9116;DHT22;4593;53.652;10.168;2023-04-03T15:26:32;7.50;47.10
9116;DHT22;4593;53.652;10.168;2023-04-03T15:28:58;7.00;48.30
9116;DHT22;4593;53.652;10.168;2023-04-03T15:31:23;6.90;49.50
9116;DHT22;4593;53.652;10.168;2023-04-03T15:33:49;6.90;50.80
9116;DHT22;4593;53.652;10.168;2023-04-03T15:36:15;6.90;50.70
9116;DHT22;4593;53.652;10.168;2023-04-03T15:38:40;6.90;50.90
9116;DHT22;4593;53.652;10.168;2023-04-03T15:41:06;7.00;51.70
9116;DHT22;4593;53.652;10.168;2023-04-03T15:43:32;7.20;50.00
9116;DHT22;4593;53.652;10.168;2023-04-03T15:45:59;7.30;50.10
9116;DHT22;4593;53.652;10.168;2023-04-03T15:48:27;7.40;49.00
9116;DHT22;4593;53.652;10.168;2023-04-03T15:50:53;7.20;49.40
9116;DHT22;4593;53.652;10.168;2023-04-03T15:53:19;7.10;50.90
9116;DHT22;4593;53.652;10.168;2023-04-03T15:55:45;7.20;50.70
9116;DHT22;4593;53.652;10.168;2023-04-03T15:58:10;7.10;51.00
9116;DHT22;4593;53.652;10.168;2023-04-03T16:00:36;6.90;51.50
9116;DHT22;4593;53.652;10.168;2023-04-03T16:03:10;7.00;52.30
9116;DHT22;4593;53.652;10.168;2023-04-03T16:05:37;7.00;52.40
9116;DHT22;4593;53.652;10.168;2023-04-03T16:08:04;7.00;52.80
9116;DHT22;4593;53.652;10.168;2023-04-03T16:10:31;6.90;53.10
9116;DHT22;4593;53.652;10.168;2023-04-03T16:12:56;6.80;53.20
9116;DHT22;4593;53.652;10.168;2023-04-03T16:15:23;6.60;53.10
9116;DHT22;4593;53.652;10.168;2023-04-03T16:17:50;6.50;54.00
9116;DHT22;4593;53.652;10.168;2023-04-03T16:20:16;6.40;54.70
9116;DHT22;4593;53.652;10.168;2023-04-03T16:22:42;6.30;55.10
9116;DHT22;4593;53.652;10.168;2023-04-03T16:25:09;6.20;55.20
9116;DHT22;4593;53.652;10.168;2023-04-03T16:27:35;6.30;56.20
9116;DHT22;4593;53.652;10.168;2023-04-03T16:30:01;6.30;56.00
9116;DHT22;4593;53.652;10.168;2023-04-03T16:32:29;6.20;56.10
9116;DHT22;4593;53.652;10.168;2023-04-03T16:34:56;6.00;56.60
9116;DHT22;4593;53.652;10.168;2023-04-03T16:37:22;5.90;57.10
9116;DHT22;4593;53.652;10.168;2023-04-03T16:39:48;6.00;57.20
9116;DHT22;4593;53.652;10.168;2023-04-03T16:42:13;5.90;57.50
9116;DHT22;4593;53.652;10.168;2023-04-03T16:44:39;5.90;57.90
9116;DHT22;4593;53.652;10.168;2023-04-03T16:47:06;6.00;57.60
9116;DHT22;4593;53.652;10.168;2023-04-03T16:49:32;6.00;57.70
9116;DHT22;4593;53.652;10.168;2023-04-03T16:52:00;5.80;57.80
9116;DHT22;4593;53.652;10.168;2023-04-03T16:54:26;5.80;58.30
9116;DHT22;4593;53.652;10.168;2023-04-03T16:56:52;5.90;58.00
9116;DHT22;4593;53.652;10.168;2023-04-03T16:59:18;5.70;57.00
9116;DHT22;4593;53.652;10.168;2023-04-03T17:01:43;5.70;57.40
9116;DHT22;4593;53.652;10.168;2023-04-03T17:04:09;5.60;57.30
9116;DHT22;4593;53.652;10.168;2023-04-03T17:06:35;5.40;57.80
9116;DHT22;4593;53.652;10.168;2023-04-03T17:09:01;5.40;58.70
9116;DHT22;4593;53.652;10.168;2023-04-03T17:11:27;5.50;59.30
9116;DHT22;4593;53.652;10.168;2023-04-03T17:13:53;5.30;58.70
9116;DHT22;4593;53.652;10.168;2023-04-03T17:16:19;5.20;58.40
9116;DHT22;4593;53.652;10.168;2023-04-03T17:18:45;5.00;58.90
9116;DHT22;4593;53.652;10.168;2023-04-03T17:21:13;4.90;58.60
9116;DHT22;4593;53.652;10.168;2023-04-03T17:23:41;4.90;58.50
9116;DHT22;4593;53.652;10.168;2023-04-03T17:26:08;5.00;57.80
9116;DHT22;4593;53.652;10.168;2023-04-03T17:28:34;4.90;56.80
9116;DHT22;4593;53.652;10.168;2023-04-03T17:31:00;4.80;55.90
9116;DHT22;4593;53.652;10.168;2023-04-03T17:33:27;4.90;56.00
9116;DHT22;4593;53.652;10.168;2023-04-03T17:36:03;4.90;56.30
9116;DHT22;4593;53.652;10.168;2023-04-03T17:38:32;4.90;56.80
9116;DHT22;4593;53.652;10.168;2023-04-03T17:40:59;4.80;56.90
9116;DHT22;4593;53.652;10.168;2023-04-03T17:43:26;4.70;56.90
9116;DHT22;4593;53.652;10.168;2023-04-03T17:45:51;4.60;56.70
9116;DHT22;4593;53.652;10.168;2023-04-03T17:48:18;4.50;56.80
9116;DHT22;4593;53.652;10.168;2023-04-03T17:50:43;4.50;56.80
9116;DHT22;4593;53.652;10.168;2023-04-03T17:53:09;4.50;57.20
9116;DHT22;4593;53.652;10.168;2023-04-03T17:55:38;4.40;57.50
9116;DHT22;4593;53.652;10.168;2023-04-03T17:58:05;4.40;58.20
9116;DHT22;4593;53.652;10.168;2023-04-03T18:00:30;4.30;58.60
9116;DHT22;4593;53.652;10.168;2023-04-03T18:02:57;4.30;59.10
9116;DHT22;4593;53.652;10.168;2023-04-03T18:05:26;4.20;59.10
9116;DHT22;4593;53.652;10.168;2023-04-03T18:07:53;4.10;59.30
9116;DHT22;4593;53.652;10.168;2023-04-03T18:10:19;4.00;60.10
9116;DHT22;4593;53.652;10.168;2023-04-03T18:12:44;4.00;60.40
9116;DHT22;4593;53.652;10.168;2023-04-03T18:15:11;3.90;60.70
9116;DHT22;4593;53.652;10.168;2023-04-03T18:17:37;3.80;60.90
9116;DHT22;4593;53.652;10.168;2023-04-03T18:20:03;3.80;61.20
9116;DHT22;4593;53.652;10.168;2023-04-03T18:22:29;3.80;61.40
9116;DHT22;4593;53.652;10.168;2023-04-03T18:24:55;3.70;61.90